Pagina principală
METAR-TAF:

METAR-TAF

Aeroporturi :

Vilhena, Rondônia, Brazilia

Latitudine: 12-42S, longitudine: 060-06W, elevație: 612 m

Observații meteo curente

Raportul a fost făcut în urmă cu 6 ore și 8 de minute, la 23:00 UTC
Vânt 5 kt de la Nord/Nord-est
Temperatură 24°C
Umiditate 74%
Presiune 1015 hPa
Vizibilitate de 10 km sau mai mult
nu există nori sub 1.500 m și nici cumulonimbus

METAR: SBVH 142300Z 03005KT CAVOK 24/19 Q1015

Ora: 01:08 (05:08 UTC)

Prognoză

Raportul a fost făcut în urmă cu 9 ore și 37 de minute, la 19:31 UTC
Prognoză valabilă de la 15 ora 00 UTC la 15 ora 12 UTC
Vânt 7 kt de la Nord/Nord-est
Vizibilitate de 10 km sau mai mult
nu există nori sub 1.500 m și nici cumulonimbus

TAF: SBVH 141931Z 1500/1512 03007KT CAVOK TN21/1510Z TX25/1512Z RMK PHC

Observații și prognoze meteo pentru peste 4.000 de aeroporturi (rapoarte METAR și TAF).

Stațiile disponibile sunt reprezentate pe hartă prin puncte galbene și roșii.

Țineți indicatorul mouse-ului pe punctul dorit pentru a vedea denumirea stației.

Apoi, faceți clic pentru a vedea observațiile și prognozele meteorologice.

Pentru a schimba harta: Pentru mărire, faceți clic pe butoanele verzi cu cruce neagră; pentru micșorare, pe butonul verde cu o liniuță; pentru hărți învecinate, pe săgețile verzi.


METAR-TAF: